Time;durP1;ratioP1;P1;durP2;ratioP2;P2;SDS_P1;SDS_P2;PMS_P1;PMS_P2;Temp;Humidity;BMP_temperature;BMP_pressure;BME280_temperature;BME280_humidity;BME280_pressure;Samples;Min_cycle;Max_cycle;Signal;HPM_P1;HPM_P2
2022/03/28 00:00:06;;;;;;;2.80;2.40;;;25.10;31.00;;;;;;5085109;28;20107;-50
2022/03/28 00:02:34;;;;;;;2.10;2.00;;;25.00;30.90;;;;;;5070631;28;20135;-52
2022/03/28 00:05:01;;;;;;;3.35;3.05;;;25.00;31.00;;;;;;5072511;28;20136;-51
2022/03/28 00:07:30;;;;;;;2.55;1.83;;;25.00;31.00;;;;;;5069335;28;20044;-47
2022/03/28 00:09:57;;;;;;;2.60;2.47;;;25.00;31.00;;;;;;5073899;28;20044;-51
2022/03/28 00:12:25;;;;;;;2.22;2.03;;;25.00;31.00;;;;;;5077531;28;20379;-53
2022/03/28 00:14:52;;;;;;;2.95;2.50;;;25.00;31.10;;;;;;5081189;28;20114;-51
2022/03/28 00:17:19;;;;;;;3.50;2.38;;;25.00;31.10;;;;;;5072944;28;20060;-54
2022/03/28 00:19:46;;;;;;;4.78;1.92;;;25.00;31.10;;;;;;5069787;28;20044;-54
2022/03/28 00:22:14;;;;;;;2.10;1.55;;;25.00;31.10;;;;;;5081151;28;20048;-52
2022/03/28 00:24:42;;;;;;;7.03;2.17;;;24.90;31.10;;;;;;5070995;28;20052;-51
2022/03/28 00:27:09;;;;;;;2.17;1.98;;;24.90;31.10;;;;;;5080401;28;20098;-53
2022/03/28 00:29:37;;;;;;;3.22;2.40;;;24.90;31.10;;;;;;5074079;28;20044;-48
2022/03/28 00:32:05;;;;;;;2.05;1.95;;;24.90;31.10;;;;;;5080882;28;20039;-52
2022/03/28 00:34:33;;;;;;;2.50;2.33;;;24.90;31.20;;;;;;5073185;28;20528;-53
2022/03/28 00:37:00;;;;;;;2.28;1.52;;;24.90;31.10;;;;;;5073467;28;20076;-52
2022/03/28 00:39:28;;;;;;;2.58;2.35;;;24.90;31.20;;;;;;5074886;28;20540;-54
2022/03/28 00:41:56;;;;;;;3.50;2.58;;;24.90;31.20;;;;;;5075339;28;20420;-50
2022/03/28 00:44:23;;;;;;;2.35;2.15;;;24.90;31.30;;;;;;5072009;28;20036;-49
2022/03/28 00:46:51;;;;;;;3.95;2.10;;;24.90;31.20;;;;;;5070413;28;20138;-53
2022/03/28 00:49:18;;;;;;;3.67;2.53;;;24.90;31.30;;;;;;5067688;28;20036;-50
2022/03/28 00:51:45;;;;;;;2.78;2.58;;;24.90;31.30;;;;;;5072163;28;20044;-52
2022/03/28 00:54:13;;;;;;;4.03;2.72;;;24.80;31.20;;;;;;5086778;28;20055;-51
2022/03/28 00:56:42;;;;;;;2.40;2.20;;;24.80;31.30;;;;;;5076280;28;20044;-50
2022/03/28 00:59:12;;;;;;;2.35;2.25;;;24.80;31.30;;;;;;5073245;28;20047;-47
2022/03/28 01:01:40;;;;;;;3.83;2.33;;;24.80;31.30;;;;;;5070526;28;20051;-50
2022/03/28 01:04:08;;;;;;;1.70;1.70;;;24.80;31.30;;;;;;5069641;28;20079;-54
2022/03/28 01:06:37;;;;;;;2.40;2.17;;;24.80;31.30;;;;;;5070620;28;20068;-49
2022/03/28 01:09:05;;;;;;;6.10;1.98;;;24.80;31.40;;;;;;5074226;28;20706;-50
2022/03/28 01:11:33;;;;;;;2.47;2.17;;;24.80;32.00;;;;;;5070737;28;20044;-49
2022/03/28 01:14:01;;;;;;;1.90;1.73;;;24.80;31.40;;;;;;5082123;28;20044;-50
2022/03/28 01:16:31;;;;;;;3.40;2.28;;;24.70;31.40;;;;;;5068560;28;20075;-50
2022/03/28 01:18:57;;;;;;;5.88;2.70;;;24.70;31.40;;;;;;5067161;28;20412;-48
2022/03/28 01:21:26;;;;;;;3.58;3.03;;;24.70;31.40;;;;;;5081135;28;20568;-48
2022/03/28 01:23:53;;;;;;;2.60;2.38;;;24.70;31.40;;;;;;5073254;28;20543;-48
2022/03/28 01:26:20;;;;;;;2.28;2.08;;;24.70;31.40;;;;;;5075160;28;20086;-48
2022/03/28 01:28:47;;;;;;;3.58;2.85;;;24.70;31.50;;;;;;5071316;28;20046;-48
2022/03/28 01:31:14;;;;;;;2.95;2.75;;;24.70;31.50;;;;;;5066103;28;20051;-49
2022/03/28 01:33:41;;;;;;;1.73;1.63;;;24.70;32.10;;;;;;5076190;28;20083;-51
2022/03/28 01:36:08;;;;;;;2.42;2.33;;;24.70;31.50;;;;;;5076249;28;20645;-51
2022/03/28 01:38:37;;;;;;;5.40;2.72;;;24.60;31.50;;;;;;5074109;28;20036;-51
2022/03/28 01:41:04;;;;;;;2.55;1.83;;;24.60;31.50;;;;;;5070711;28;20101;-47
2022/03/28 01:43:31;;;;;;;2.28;2.17;;;24.60;31.50;;;;;;5079724;28;20039;-48
2022/03/28 01:45:58;;;;;;;2.53;2.33;;;24.60;31.50;;;;;;5076617;28;20735;-52
2022/03/28 01:48:26;;;;;;;2.63;1.77;;;24.60;31.50;;;;;;5083573;28;20520;-51
2022/03/28 01:50:53;;;;;;;2.08;1.90;;;24.60;31.60;;;;;;5071230;28;20126;-49
2022/03/28 01:53:20;;;;;;;3.80;1.65;;;24.60;31.60;;;;;;5078412;28;20040;-52
2022/03/28 01:55:48;;;;;;;4.82;2.70;;;24.60;31.60;;;;;;5077850;28;20052;-53
2022/03/28 01:58:15;;;;;;;2.50;2.30;;;24.60;31.60;;;;;;5071122;28;20044;-53
2022/03/28 02:00:43;;;;;;;3.58;2.15;;;24.60;31.70;;;;;;5077624;28;20048;-49
2022/03/28 02:03:10;;;;;;;2.78;1.88;;;24.60;31.70;;;;;;5074673;28;20047;-53
2022/03/28 02:05:37;;;;;;;2.15;2.05;;;24.60;31.70;;;;;;5072553;28;20111;-52
2022/03/28 02:08:05;;;;;;;2.65;2.25;;;24.50;31.70;;;;;;5078858;28;20032;-53
2022/03/28 02:10:32;;;;;;;2.83;2.72;;;24.50;31.70;;;;;;5075244;28;20515;-56
2022/03/28 02:13:01;;;;;;;2.40;2.17;;;24.50;31.70;;;;;;5077929;28;20044;-52
2022/03/28 02:15:28;;;;;;;2.45;2.15;;;24.50;31.80;;;;;;5083002;28;20671;-50
2022/03/28 02:17:55;;;;;;;4.00;2.97;;;24.50;31.70;;;;;;5081604;28;20036;-53
2022/03/28 02:20:22;;;;;;;2.85;1.92;;;24.50;31.70;;;;;;5073782;28;20047;-52
2022/03/28 02:22:50;;;;;;;4.40;1.67;;;24.50;31.80;;;;;;5072272;28;20095;-54
2022/03/28 02:25:17;;;;;;;2.45;2.25;;;24.50;31.80;;;;;;5072083;28;20121;-53
2022/03/28 02:27:45;;;;;;;4.05;2.50;;;24.50;31.80;;;;;;5078635;28;20040;-53
2022/03/28 02:30:15;;;;;;;1.70;1.60;;;24.50;31.80;;;;;;5075212;28;20808;-50
2022/03/28 02:32:42;;;;;;;2.80;2.00;;;24.50;31.90;;;;;;5077274;28;20044;-51
2022/03/28 02:35:11;;;;;;;3.05;2.75;;;24.50;31.90;;;;;;5079589;28;20516;-49
2022/03/28 02:37:39;;;;;;;2.65;2.47;;;24.40;31.90;;;;;;5068562;28;20040;-54
2022/03/28 02:40:08;;;;;;;3.28;2.80;;;24.40;31.90;;;;;;5083605;28;20129;-51
2022/03/28 02:42:35;;;;;;;2.38;2.17;;;24.40;31.90;;;;;;5080606;28;20043;-49
2022/03/28 02:45:02;;;;;;;2.50;2.30;;;24.40;31.90;;;;;;5082947;28;20139;-52
2022/03/28 02:47:31;;;;;;;3.05;2.85;;;24.40;31.90;;;;;;5079543;28;20047;-52
2022/03/28 02:49:58;;;;;;;2.65;1.88;;;24.40;32.00;;;;;;5073812;28;20048;-51
2022/03/28 02:52:25;;;;;;;2.05;1.92;;;24.40;31.90;;;;;;5072628;28;20110;-52
2022/03/28 02:54:52;;;;;;;2.60;2.20;;;24.40;32.00;;;;;;5072296;28;20052;-50
2022/03/28 02:57:20;;;;;;;2.08;1.85;;;24.40;32.00;;;;;;5071487;28;20051;-51
2022/03/28 02:59:47;;;;;;;3.28;2.97;;;24.40;32.00;;;;;;5074527;28;20089;-54
2022/03/28 03:02:14;;;;;;;5.32;2.50;;;24.30;32.00;;;;;;5075650;28;20128;-51
2022/03/28 03:04:42;;;;;;;5.00;2.08;;;24.40;32.10;;;;;;5071920;28;20052;-52
2022/03/28 03:07:09;;;;;;;2.30;2.20;;;24.40;32.10;;;;;;5079347;28;20102;-55
2022/03/28 03:09:37;;;;;;;2.67;2.47;;;24.30;32.00;;;;;;5075464;28;20055;-52
2022/03/28 03:12:04;;;;;;;2.20;2.00;;;24.30;32.00;;;;;;5080822;28;20044;-48
2022/03/28 03:14:32;;;;;;;2.22;1.77;;;24.30;32.10;;;;;;5077447;28;20052;-50
2022/03/28 03:16:59;;;;;;;2.58;2.10;;;24.30;32.10;;;;;;5076060;28;20043;-52
2022/03/28 03:19:26;;;;;;;2.97;2.05;;;24.30;32.10;;;;;;5073951;28;20033;-55
2022/03/28 03:21:54;;;;;;;2.65;1.95;;;24.30;32.10;;;;;;5069877;28;20883;-53
2022/03/28 03:24:22;;;;;;;1.65;1.55;;;24.30;32.10;;;;;;5073459;28;20045;-51
2022/03/28 03:26:49;;;;;;;2.47;1.63;;;24.30;32.20;;;;;;5080287;28;20035;-49
2022/03/28 03:29:16;;;;;;;2.35;1.70;;;24.30;32.20;;;;;;5083479;28;20051;-49
2022/03/28 03:31:43;;;;;;;2.85;2.55;;;24.30;32.20;;;;;;5069157;28;20407;-52
2022/03/28 03:34:10;;;;;;;3.03;2.55;;;24.30;32.20;;;;;;5072706;28;20044;-49
2022/03/28 03:36:38;;;;;;;1.77;1.55;;;24.30;32.20;;;;;;5069249;28;20064;-52
2022/03/28 03:39:06;;;;;;;2.83;1.75;;;24.30;32.20;;;;;;5074643;28;20059;-52
2022/03/28 03:41:34;;;;;;;2.45;1.60;;;24.20;32.20;;;;;;5076254;28;20115;-50
2022/03/28 03:44:01;;;;;;;1.92;1.40;;;24.20;32.20;;;;;;5075349;28;20145;-52
2022/03/28 03:46:28;;;;;;;1.73;1.63;;;24.20;32.20;;;;;;5067930;28;20048;-54
2022/03/28 03:48:55;;;;;;;1.98;1.88;;;24.20;32.30;;;;;;5074213;28;20400;-54
2022/03/28 03:51:22;;;;;;;2.38;2.15;;;24.20;32.30;;;;;;5078289;28;20047;-51
2022/03/28 03:53:49;;;;;;;2.30;2.20;;;24.20;32.30;;;;;;5070931;28;20463;-54
2022/03/28 03:56:18;;;;;;;2.53;2.33;;;24.20;32.30;;;;;;5074820;28;20032;-53
2022/03/28 03:58:45;;;;;;;1.85;1.75;;;24.20;32.40;;;;;;5072423;28;20039;-49
2022/03/28 04:01:13;;;;;;;2.42;2.08;;;24.10;32.40;;;;;;5073634;28;20040;-50
2022/03/28 04:03:40;;;;;;;2.55;1.98;;;24.20;32.40;;;;;;5071976;28;20044;-53
2022/03/28 04:06:10;;;;;;;2.53;2.33;;;24.20;32.50;;;;;;5069804;28;20132;-53
2022/03/28 04:08:37;;;;;;;3.13;1.65;;;24.10;32.50;;;;;;5077487;28;20043;-52
2022/03/28 04:11:04;;;;;;;2.13;2.03;;;24.10;32.40;;;;;;5069590;28;20047;-51
2022/03/28 04:13:33;;;;;;;2.17;2.03;;;24.10;32.40;;;;;;5076154;28;20501;-54
2022/03/28 04:16:00;;;;;;;2.53;2.10;;;24.10;32.50;;;;;;5070750;28;20420;-53
2022/03/28 04:18:27;;;;;;;2.05;1.95;;;24.10;32.50;;;;;;5086375;28;20553;-51
2022/03/28 04:20:56;;;;;;;2.13;1.90;;;24.10;32.50;;;;;;5077065;28;20050;-50
2022/03/28 04:23:25;;;;;;;3.38;1.98;;;24.10;32.50;;;;;;5075208;28;20040;-55
2022/03/28 04:25:53;;;;;;;2.63;1.85;;;24.10;32.50;;;;;;5075745;28;20706;-54
2022/03/28 04:28:21;;;;;;;2.53;2.33;;;24.10;32.60;;;;;;5073664;28;20580;-49
2022/03/28 04:30:50;;;;;;;3.60;2.15;;;24.10;32.60;;;;;;5072258;28;20051;-52
2022/03/28 04:33:18;;;;;;;2.08;1.95;;;24.10;32.60;;;;;;5072660;28;20052;-52
2022/03/28 04:35:46;;;;;;;2.67;2.20;;;24.10;32.60;;;;;;5073377;28;20055;-53
2022/03/28 04:38:13;;;;;;;3.40;2.20;;;24.00;32.60;;;;;;5067138;28;20032;-49
2022/03/28 04:40:41;;;;;;;2.90;2.38;;;24.10;32.70;;;;;;5080603;28;20051;-54
2022/03/28 04:43:09;;;;;;;2.65;2.25;;;24.00;32.70;;;;;;5073277;28;20097;-52
2022/03/28 04:45:37;;;;;;;4.22;2.17;;;24.00;32.70;;;;;;5072540;28;20169;-55
2022/03/28 04:48:06;;;;;;;1.48;1.23;;;24.00;32.70;;;;;;5071353;28;20075;-53
2022/03/28 04:50:33;;;;;;;2.10;1.98;;;24.00;32.70;;;;;;5071651;28;20051;-49
2022/03/28 04:53:01;;;;;;;2.78;1.90;;;24.00;33.30;;;;;;5072318;28;20056;-52
2022/03/28 04:55:28;;;;;;;3.00;2.70;;;24.00;32.70;;;;;;5078526;28;20094;-53
2022/03/28 04:57:56;;;;;;;2.67;1.75;;;24.00;32.70;;;;;;5076653;28;20032;-54
2022/03/28 05:00:23;;;;;;;2.53;1.85;;;24.00;32.80;;;;;;5079010;28;20060;-52
2022/03/28 05:02:50;;;;;;;1.20;1.10;;;24.00;32.80;;;;;;5070066;28;20111;-52
2022/03/28 05:05:18;;;;;;;4.13;2.50;;;24.00;32.90;;;;;;5069590;28;20443;-54
2022/03/28 05:07:46;;;;;;;2.53;2.05;;;23.90;32.80;;;;;;5069467;28;20068;-51
2022/03/28 05:10:13;;;;;;;1.85;1.75;;;23.90;32.80;;;;;;5071336;28;20127;-53
2022/03/28 05:12:40;;;;;;;2.33;1.98;;;23.90;32.80;;;;;;5078299;28;20048;-48
2022/03/28 05:15:09;;;;;;;5.07;1.98;;;23.90;32.90;;;;;;5072911;28;20040;-53
2022/03/28 05:17:36;;;;;;;3.33;1.88;;;23.90;32.80;;;;;;5075963;28;20090;-54
2022/03/28 05:20:05;;;;;;;4.03;2.63;;;23.90;32.90;;;;;;5067686;28;20428;-51
2022/03/28 05:22:33;;;;;;;3.88;3.08;;;23.90;32.90;;;;;;5068826;28;20692;-51
2022/03/28 05:25:00;;;;;;;3.42;2.25;;;23.90;32.90;;;;;;5075605;28;20036;-52
2022/03/28 05:27:28;;;;;;;2.47;2.13;;;23.90;32.90;;;;;;5085336;28;20549;-51
2022/03/28 05:29:55;;;;;;;3.05;2.30;;;23.90;32.90;;;;;;5073570;28;20037;-49
2022/03/28 05:32:22;;;;;;;1.83;1.63;;;23.90;33.60;;;;;;5072290;28;20044;-52
2022/03/28 05:34:49;;;;;;;4.10;1.80;;;23.90;33.00;;;;;;5070130;28;20054;-50
2022/03/28 05:37:18;;;;;;;1.90;1.80;;;23.90;33.00;;;;;;5079995;28;20048;-54
2022/03/28 05:39:48;;;;;;;3.53;2.08;;;23.90;33.00;;;;;;5085243;28;20032;-52
2022/03/28 05:42:16;;;;;;;1.45;1.35;;;23.90;33.00;;;;;;5075048;28;20052;-54
2022/03/28 05:44:43;;;;;;;3.42;2.58;;;23.90;33.00;;;;;;5074115;28;20049;-51
2022/03/28 05:47:11;;;;;;;2.92;2.17;;;23.90;33.10;;;;;;5072262;28;20051;-51
2022/03/28 05:49:38;;;;;;;4.55;2.45;;;23.90;33.10;;;;;;5068318;28;20107;-53
2022/03/28 05:52:06;;;;;;;2.00;1.60;;;23.90;33.10;;;;;;5070242;28;20041;-54
2022/03/28 05:54:34;;;;;;;4.07;2.72;;;23.90;33.10;;;;;;5072340;28;20060;-53
2022/03/28 05:57:02;;;;;;;4.32;2.13;;;23.90;33.20;;;;;;5076326;28;20036;-52
2022/03/28 05:59:29;;;;;;;2.33;1.70;;;23.90;33.10;;;;;;5074970;28;20039;-52
2022/03/28 06:01:56;;;;;;;1.73;1.63;;;23.90;33.20;;;;;;5069039;28;20044;-54
2022/03/28 06:04:24;;;;;;;2.03;1.83;;;23.80;33.10;;;;;;5065059;28;20416;-55
2022/03/28 06:06:52;;;;;;;2.70;1.75;;;23.90;33.20;;;;;;5083010;28;20587;-53
2022/03/28 06:09:19;;;;;;;2.80;2.58;;;23.90;33.20;;;;;;5076857;28;20123;-54
2022/03/28 06:11:46;;;;;;;3.50;1.77;;;23.90;33.20;;;;;;5078661;28;20504;-54
2022/03/28 06:14:15;;;;;;;2.88;1.85;;;23.80;33.20;;;;;;5083955;28;20123;-53
2022/03/28 06:16:42;;;;;;;2.53;2.30;;;23.80;33.20;;;;;;5066242;28;20056;-51
2022/03/28 06:19:09;;;;;;;2.55;1.50;;;23.90;33.20;;;;;;5067129;28;20119;-52
2022/03/28 06:21:37;;;;;;;4.60;2.95;;;23.90;33.20;;;;;;5074148;28;20117;-53
2022/03/28 06:24:04;;;;;;;3.28;2.90;;;23.90;33.20;;;;;;5077478;28;20105;-53
2022/03/28 06:26:32;;;;;;;6.18;2.58;;;23.90;33.30;;;;;;5073181;28;20040;-53
2022/03/28 06:28:59;;;;;;;2.13;2.03;;;23.80;33.20;;;;;;5084199;28;20114;-52
2022/03/28 06:31:27;;;;;;;3.08;1.98;;;23.90;33.30;;;;;;5083779;28;20055;-54
2022/03/28 06:34:01;;;;;;;3.33;2.35;;;23.80;33.30;;;;;;5073003;28;20143;-53
2022/03/28 06:36:29;;;;;;;2.00;1.90;;;23.90;33.40;;;;;;5073947;28;20048;-53
2022/03/28 06:38:56;;;;;;;3.03;2.28;;;23.90;33.40;;;;;;5075039;28;20607;-53
2022/03/28 06:41:23;;;;;;;3.08;1.98;;;23.90;33.40;;;;;;5078082;28;20181;-51
2022/03/28 06:43:50;;;;;;;2.65;1.98;;;23.90;33.40;;;;;;5079508;28;20546;-50
2022/03/28 06:46:17;;;;;;;4.97;2.83;;;23.90;33.40;;;;;;5068960;28;20518;-56
2022/03/28 06:48:47;;;;;;;2.58;2.10;;;23.90;33.40;;;;;;5071789;28;20086;-54
2022/03/28 06:51:14;;;;;;;3.55;2.05;;;23.90;33.40;;;;;;5078512;28;20582;-52
2022/03/28 06:53:42;;;;;;;2.28;2.15;;;23.90;33.40;;;;;;5074265;28;20044;-50
2022/03/28 06:56:09;;;;;;;3.50;2.95;;;23.90;33.40;;;;;;5073121;28;20048;-55
2022/03/28 06:58:37;;;;;;;5.60;3.13;;;23.90;33.40;;;;;;5071431;28;20043;-51
2022/03/28 07:01:04;;;;;;;2.85;2.55;;;23.90;33.40;;;;;;5073939;28;20082;-50
2022/03/28 07:03:32;;;;;;;4.05;3.22;;;23.90;33.50;;;;;;5073658;28;20564;-52
2022/03/28 07:06:01;;;;;;;7.15;2.53;;;23.90;33.40;;;;;;5073499;28;20064;-56
2022/03/28 07:08:29;;;;;;;4.70;2.42;;;23.90;33.40;;;;;;5078140;28;20074;-54
2022/03/28 07:10:58;;;;;;;6.80;2.00;;;23.90;33.40;;;;;;5072148;28;20094;-54
2022/03/28 07:13:26;;;;;;;2.70;2.50;;;23.90;33.50;;;;;;5069824;28;20044;-53
2022/03/28 07:15:53;;;;;;;4.72;2.80;;;23.90;33.40;;;;;;5072316;28;20586;-53
2022/03/28 07:18:20;;;;;;;3.17;2.88;;;23.90;33.40;;;;;;5073250;28;20072;-54
2022/03/28 07:20:47;;;;;;;5.07;2.17;;;23.90;33.40;;;;;;5076085;28;20044;-54
2022/03/28 07:23:17;;;;;;;2.63;2.42;;;23.90;33.40;;;;;;5083181;28;20067;-55
2022/03/28 07:25:45;;;;;;;4.18;2.50;;;23.90;33.40;;;;;;5076355;28;20040;-55
2022/03/28 07:28:13;;;;;;;5.95;2.30;;;23.90;33.40;;;;;;5082815;28;20568;-53
2022/03/28 07:30:42;;;;;;;4.93;3.50;;;23.90;33.40;;;;;;5071187;28;20106;-52
2022/03/28 07:33:09;;;;;;;5.70;3.78;;;23.90;33.40;;;;;;5072140;28;20042;-51
2022/03/28 07:35:38;;;;;;;3.22;2.25;;;23.90;33.40;;;;;;5075928;28;20063;-54
2022/03/28 07:38:08;;;;;;;4.95;2.47;;;23.90;33.40;;;;;;5074516;28;20043;-49
2022/03/28 07:40:37;;;;;;;3.05;2.40;;;24.00;33.50;;;;;;5070711;28;20051;-51
2022/03/28 07:43:04;;;;;;;6.72;3.47;;;24.00;33.40;;;;;;5079638;28;20045;-50
2022/03/28 07:45:31;;;;;;;5.03;2.80;;;24.00;33.40;;;;;;5069876;28;20063;-52
2022/03/28 07:47:59;;;;;;;3.55;3.05;;;24.00;33.40;;;;;;5075029;28;20041;-52
2022/03/28 07:50:27;;;;;;;7.28;3.63;;;24.00;33.40;;;;;;5077774;28;20036;-52
2022/03/28 07:52:54;;;;;;;3.75;2.95;;;24.00;33.40;;;;;;5079135;28;20060;-53
2022/03/28 07:55:21;;;;;;;5.78;3.20;;;24.00;33.40;;;;;;5084925;28;20051;-49
2022/03/28 07:57:50;;;;;;;4.85;3.25;;;24.00;33.30;;;;;;5070482;28;20051;-51
2022/03/28 08:00:19;;;;;;;6.10;2.78;;;24.10;33.40;;;;;;5081097;28;20036;-52
2022/03/28 08:02:46;;;;;;;5.95;2.75;;;24.10;33.40;;;;;;5073398;28;20118;-52
2022/03/28 08:05:13;;;;;;;4.07;3.38;;;24.10;33.40;;;;;;5066721;28;20040;-51
2022/03/28 08:07:41;;;;;;;3.67;3.28;;;24.10;33.40;;;;;;5072113;28;20766;-53
2022/03/28 08:10:09;;;;;;;4.10;3.45;;;24.10;33.40;;;;;;5067194;28;20178;-53
2022/03/28 08:12:38;;;;;;;3.50;3.15;;;24.10;33.40;;;;;;5077396;28;20415;-59
2022/03/28 08:15:09;;;;;;;8.35;3.40;;;24.10;33.40;;;;;;5071911;28;20062;-54
2022/03/28 08:17:37;;;;;;;8.90;3.92;;;24.20;33.40;;;;;;5067676;28;20040;-55
2022/03/28 08:20:09;;;;;;;3.75;3.03;;;24.10;33.40;;;;;;5068571;28;20045;-54
2022/03/28 08:22:36;;;;;;;6.90;3.97;;;24.20;33.40;;;;;;5069778;28;20044;-52
2022/03/28 08:25:04;;;;;;;4.53;4.05;;;24.20;33.40;;;;;;5074031;28;20097;-55
2022/03/28 08:27:31;;;;;;;10.07;4.35;;;24.20;33.30;;;;;;5085197;28;20039;-50
2022/03/28 08:29:58;;;;;;;6.32;4.78;;;24.20;33.30;;;;;;5077878;28;20047;-55
2022/03/28 08:32:27;;;;;;;5.30;3.40;;;24.20;33.40;;;;;;5078261;28;20115;-52
2022/03/28 08:34:54;;;;;;;9.93;5.07;;;24.20;33.30;;;;;;5067185;28;20242;-55
2022/03/28 08:37:22;;;;;;;7.53;4.03;;;24.30;33.30;;;;;;5069283;28;20102;-52
2022/03/28 08:39:54;;;;;;;8.45;4.65;;;24.30;33.30;;;;;;5070534;28;20041;-50
2022/03/28 08:42:22;;;;;;;7.45;4.43;;;24.30;33.40;;;;;;5079540;28;20040;-51
2022/03/28 08:44:49;;;;;;;8.27;4.93;;;24.30;33.40;;;;;;5072299;28;20426;-52
2022/03/28 08:47:20;;;;;;;10.30;4.75;;;24.30;33.30;;;;;;5075146;28;20567;-56
2022/03/28 08:49:49;;;;;;;11.68;5.38;;;24.30;33.30;;;;;;5071037;28;20051;-53
2022/03/28 08:52:17;;;;;;;10.93;6.53;;;24.40;33.40;;;;;;5080893;28;20036;-54
2022/03/28 08:54:45;;;;;;;12.77;7.13;;;24.40;33.40;;;;;;5071676;28;20058;-53
2022/03/28 08:57:13;;;;;;;11.23;5.90;;;24.40;33.40;;;;;;5075899;28;20044;-52
2022/03/28 08:59:40;;;;;;;10.70;5.80;;;24.40;33.30;;;;;;5070647;28;20139;-53
2022/03/28 09:02:26;;;;;;;12.77;6.18;;;24.40;33.30;;;;;;5068366;28;20036;-53
2022/03/28 09:04:57;;;;;;;10.65;6.22;;;24.40;33.30;;;;;;5073565;28;20053;-52
2022/03/28 09:07:28;;;;;;;13.35;7.05;;;24.40;33.30;;;;;;5071434;28;20138;-51
2022/03/28 09:10:00;;;;;;;13.15;5.85;;;24.50;33.40;;;;;;5070223;28;20177;-55
2022/03/28 09:12:27;;;;;;;13.65;6.78;;;24.50;33.30;;;;;;5077166;28;20523;-51
2022/03/28 09:14:58;;;;;;;10.90;6.35;;;24.50;33.30;;;;;;5076534;28;20045;-53
2022/03/28 09:17:26;;;;;;;13.48;6.53;;;24.50;33.30;;;;;;5070225;28;20036;-51
2022/03/28 09:19:55;;;;;;;14.32;7.53;;;24.50;33.20;;;;;;5071362;28;20071;-53
2022/03/28 09:22:26;;;;;;;11.40;6.80;;;24.50;33.20;;;;;;5069141;28;20062;-53
2022/03/28 09:24:55;;;;;;;15.55;6.38;;;24.60;33.30;;;;;;5073860;28;20044;-53
2022/03/28 09:27:24;;;;;;;13.55;6.25;;;24.60;33.20;;;;;;5076471;28;20035;-52
2022/03/28 09:29:57;;;;;;;17.90;7.05;;;24.60;33.30;;;;;;5074401;28;20053;-52
2022/03/28 09:32:26;;;;;;;18.10;8.13;;;24.60;33.20;;;;;;5071586;28;20036;-50
2022/03/28 09:35:12;;;;;;;17.40;6.47;;;24.60;33.20;;;;;;5073329;28;20051;-55
2022/03/28 09:38:01;;;;;;;13.30;6.38;;;24.70;33.20;;;;;;5074482;28;20169;-53
2022/03/28 09:40:35;;;;;;;13.80;7.70;;;24.70;33.20;;;;;;5072457;28;20040;-54
2022/03/28 09:43:03;;;;;;;13.43;6.22;;;24.70;33.20;;;;;;5072614;28;20105;-53
2022/03/28 09:45:35;;;;;;;16.70;8.63;;;24.70;33.20;;;;;;5073642;28;20040;-52
2022/03/28 09:48:04;;;;;;;14.30;7.57;;;24.70;33.10;;;;;;5074952;28;20052;-52
2022/03/28 09:50:39;;;;;;;17.45;7.22;;;24.80;33.20;;;;;;5070018;28;20064;-54
2022/03/28 09:53:19;;;;;;;15.10;7.93;;;24.80;33.10;;;;;;5072574;28;20389;-53
2022/03/28 09:55:52;;;;;;;15.15;7.25;;;24.80;33.10;;;;;;5076822;28;20071;-54
2022/03/28 09:58:46;;;;;;;16.77;7.07;;;24.80;33.10;;;;;;5074541;28;20124;-52
2022/03/28 10:01:18;;;;;;;16.58;7.85;;;24.90;33.00;;;;;;5066002;28;20059;-52
2022/03/28 10:03:48;;;;;;;13.43;6.55;;;24.90;33.10;;;;;;5073240;28;20102;-52
2022/03/28 10:06:16;;;;;;;13.90;7.72;;;24.90;33.00;;;;;;5079503;28;20140;-51
2022/03/28 10:08:46;;;;;;;15.10;6.70;;;24.90;33.00;;;;;;5071537;28;20048;-52
2022/03/28 10:11:14;;;;;;;16.27;7.47;;;25.00;33.00;;;;;;5072512;28;20072;-51
2022/03/28 10:13:41;;;;;;;10.35;6.50;;;25.00;33.00;;;;;;5080129;28;20127;-52
2022/03/28 10:16:09;;;;;;;12.73;6.90;;;25.00;32.90;;;;;;5069287;28;20121;-51
2022/03/28 10:18:39;;;;;;;11.70;7.00;;;25.10;32.90;;;;;;5089756;28;20043;-49
2022/03/28 10:21:08;;;;;;;10.95;7.38;;;25.10;32.90;;;;;;5077928;28;20045;-54
2022/03/28 10:23:42;;;;;;;18.25;6.95;;;25.20;32.90;;;;;;5081218;28;20135;-54
2022/03/28 10:26:12;;;;;;;13.35;7.25;;;25.20;32.80;;;;;;5076308;28;20640;-54
2022/03/28 10:28:40;;;;;;;15.45;7.40;;;25.30;32.80;;;;;;5086035;28;20075;-50
2022/03/28 10:31:16;;;;;;;10.43;6.82;;;25.30;32.70;;;;;;5075757;28;20040;-51
2022/03/28 10:33:48;;;;;;;15.57;7.10;;;25.30;32.70;;;;;;5074767;28;20114;-51
2022/03/28 10:36:28;;;;;;;15.15;7.90;;;25.40;32.70;;;;;;5078804;28;20047;-51
2022/03/28 10:39:32;;;;;;;11.70;6.75;;;25.40;32.60;;;;;;5085071;28;20093;-53
2022/03/28 10:42:14;;;;;;;13.90;7.25;;;25.40;32.50;;;;;;5077023;28;20131;-53
2022/03/28 10:44:59;;;;;;;11.98;7.47;;;25.40;32.50;;;;;;5072297;28;20492;-52
2022/03/28 10:47:41;;;;;;;12.50;6.95;;;25.40;32.40;;;;;;5074945;28;20097;-54
2022/03/28 10:50:10;;;;;;;13.68;6.93;;;25.50;32.40;;;;;;5078763;28;20041;-54
2022/03/28 10:52:37;;;;;;;11.23;6.55;;;25.50;32.40;;;;;;5069710;28;20044;-55
2022/03/28 10:55:10;;;;;;;11.38;6.80;;;25.50;32.20;;;;;;5075111;28;20074;-54
2022/03/28 10:57:39;;;;;;;13.23;7.25;;;25.60;32.30;;;;;;5070496;28;20518;-51
2022/03/28 11:00:12;;;;;;;7.88;4.88;;;25.60;32.20;;;;;;5084544;28;20098;-53
2022/03/28 11:02:39;;;;;;;10.18;5.72;;;25.60;32.20;;;;;;5079411;28;20041;-54
2022/03/28 11:05:09;;;;;;;7.80;5.65;;;25.70;32.20;;;;;;5074942;28;20072;-54
2022/03/28 11:07:36;;;;;;;11.25;5.60;;;25.70;32.20;;;;;;5077615;28;20048;-52
2022/03/28 11:10:06;;;;;;;9.45;4.95;;;25.70;32.10;;;;;;5069467;28;20033;-54
2022/03/28 11:12:37;;;;;;;11.00;5.20;;;25.70;32.10;;;;;;5082197;28;20393;-53
2022/03/28 11:15:15;;;;;;;10.65;5.65;;;25.80;32.10;;;;;;5085242;28;20067;-56
2022/03/28 11:17:55;;;;;;;10.68;6.00;;;25.80;32.10;;;;;;5071063;28;20587;-49
2022/03/28 11:20:24;;;;;;;9.48;5.40;;;25.90;32.10;;;;;;5076711;28;20052;-52
2022/03/28 11:22:54;;;;;;;7.93;4.43;;;25.90;32.10;;;;;;5074143;28;20428;-53
2022/03/28 11:25:32;;;;;;;11.85;5.82;;;25.90;32.10;;;;;;5068275;28;20041;-52
2022/03/28 11:28:08;;;;;;;8.98;5.78;;;26.00;32.10;;;;;;5072423;28;20040;-52
2022/03/28 11:30:49;;;;;;;7.22;3.90;;;26.00;32.00;;;;;;5077660;28;20075;-54
2022/03/28 11:33:21;;;;;;;6.80;4.07;;;26.00;32.00;;;;;;5075390;28;20098;-53
2022/03/28 11:35:55;;;;;;;8.15;4.65;;;26.00;32.00;;;;;;5075330;28;20071;-53
2022/03/28 11:38:23;;;;;;;8.98;4.45;;;26.10;31.90;;;;;;5080254;28;20318;-55
2022/03/28 11:40:50;;;;;;;9.00;5.40;;;26.10;31.90;;;;;;5071469;28;20416;-53
2022/03/28 11:43:18;;;;;;;7.30;3.70;;;26.20;31.90;;;;;;5075544;28;20075;-54
2022/03/28 11:45:48;;;;;;;6.95;4.07;;;26.20;31.80;;;;;;5068315;28;20040;-54
2022/03/28 11:48:18;;;;;;;8.23;3.95;;;26.30;31.90;;;;;;5081698;28;20106;-54
2022/03/28 11:50:46;;;;;;;10.57;3.80;;;26.30;31.80;;;;;;5070981;28;20036;-48
2022/03/28 11:53:14;;;;;;;7.07;4.50;;;26.30;31.70;;;;;;5070828;28;20048;-53
2022/03/28 11:55:51;;;;;;;6.55;4.13;;;26.40;31.70;;;;;;5074511;28;20555;-52
2022/03/28 11:58:28;;;;;;;6.07;4.55;;;26.40;31.70;;;;;;5074293;28;20046;-54
2022/03/28 12:01:07;;;;;;;10.65;4.75;;;26.40;31.60;;;;;;5071240;28;20032;-51
2022/03/28 12:03:37;;;;;;;6.13;3.53;;;26.50;31.60;;;;;;5078913;28;20040;-53
2022/03/28 12:06:05;;;;;;;11.30;4.78;;;26.50;31.50;;;;;;5070766;28;20049;-57
2022/03/28 12:08:32;;;;;;;7.88;3.97;;;26.50;31.50;;;;;;5067021;28;20135;-52
2022/03/28 12:10:59;;;;;;;7.38;3.58;;;26.50;31.40;;;;;;5072198;28;20040;-53
2022/03/28 12:13:27;;;;;;;3.63;2.92;;;26.60;31.40;;;;;;5080328;28;20051;-54
2022/03/28 12:15:56;;;;;;;7.35;3.63;;;26.60;31.30;;;;;;5068020;28;20139;-55
2022/03/28 12:18:30;;;;;;;3.85;2.72;;;26.70;31.30;;;;;;5072799;28;20044;-56
2022/03/28 12:20:58;;;;;;;6.65;3.13;;;26.70;31.90;;;;;;5072303;28;20059;-55
2022/03/28 12:23:28;;;;;;;11.73;3.13;;;26.70;31.20;;;;;;5070584;28;20036;-51
2022/03/28 12:26:00;;;;;;;8.90;3.05;;;26.80;31.20;;;;;;5072267;28;20082;-52
2022/03/28 12:28:33;;;;;;;8.13;3.88;;;26.80;31.20;;;;;;5075988;28;20061;-55
2022/03/28 12:31:02;;;;;;;4.22;2.03;;;26.80;31.10;;;;;;5074071;28;20044;-50
2022/03/28 12:33:33;;;;;;;3.22;2.17;;;26.90;31.20;;;;;;5073583;28;20092;-54
2022/03/28 12:36:03;;;;;;;5.18;2.90;;;26.90;31.10;;;;;;5070786;28;20060;-51
2022/03/28 12:38:31;;;;;;;4.80;3.35;;;26.90;31.00;;;;;;5069957;28;20045;-53
2022/03/28 12:41:03;;;;;;;9.80;2.72;;;26.90;31.00;;;;;;5070693;28;20097;-48
2022/03/28 12:43:30;;;;;;;5.57;2.88;;;27.00;31.00;;;;;;5075398;28;20409;-53
2022/03/28 12:45:59;;;;;;;3.22;2.00;;;27.00;31.00;;;;;;5078815;28;20051;-52
2022/03/28 12:48:40;;;;;;;2.47;1.50;;;27.00;30.90;;;;;;5072228;28;20121;-53
2022/03/28 12:51:08;;;;;;;1.60;1.50;;;27.10;30.90;;;;;;5069146;28;20048;-51
2022/03/28 12:53:38;;;;;;;3.45;3.15;;;27.00;30.80;;;;;;5073646;28;20508;-49